createdAt,value
2019-02-23T00:01:15.536Z,4.15
2019-02-23T00:04:18.104Z,4.06
2019-02-23T00:07:20.721Z,4.18
2019-02-23T00:10:23.313Z,4.24
2019-02-23T00:13:26.148Z,4.13
2019-02-23T00:16:28.883Z,4.02
2019-02-23T00:19:31.661Z,4.04
2019-02-23T00:22:34.351Z,3.88
2019-02-23T00:25:37.223Z,3.85
2019-02-23T00:28:39.897Z,3.97
2019-02-23T00:31:44.852Z,4.10
2019-02-23T00:34:47.450Z,3.99
2019-02-23T00:37:50.132Z,3.94
2019-02-23T00:40:52.786Z,4.06
2019-02-23T00:43:55.482Z,4.04
2019-02-23T00:47:01.071Z,4.03
2019-02-23T00:50:04.091Z,4.03
2019-02-23T00:53:06.837Z,3.92
2019-02-23T00:56:09.422Z,3.87
2019-02-23T00:59:18.107Z,3.76
2019-02-23T01:02:18.478Z,3.85
2019-02-23T01:05:21.212Z,3.85
2019-02-23T01:08:23.869Z,3.86
2019-02-23T01:11:26.518Z,3.49
2019-02-23T01:14:29.282Z,3.47
2019-02-23T01:17:33.890Z,3.20
2019-02-23T01:20:36.575Z,2.91
2019-02-23T01:23:39.140Z,2.70
2019-02-23T01:26:44.363Z,2.60
2019-02-23T01:29:47.041Z,2.50
2019-02-23T01:32:49.692Z,2.53
2019-02-23T01:35:52.525Z,2.52
2019-02-23T01:38:55.217Z,2.35
2019-02-23T01:41:57.882Z,2.38
2019-02-23T01:45:02.857Z,2.27
2019-02-23T01:48:05.411Z,2.21
2019-02-23T01:51:08.129Z,2.37
2019-02-23T01:54:13.370Z,2.11
2019-02-23T01:57:15.341Z,2.24
2019-02-23T02:00:18.232Z,2.11
2019-02-23T02:03:21.021Z,2.16
2019-02-23T02:06:23.699Z,2.23
2019-02-23T02:09:26.361Z,2.21
2019-02-23T02:12:29.010Z,2.19
2019-02-23T02:15:31.647Z,2.08
2019-02-23T02:18:34.188Z,2.13
2019-02-23T02:21:37.756Z,2.02
2019-02-23T02:24:40.426Z,1.99
2019-02-23T02:27:43.006Z,1.96
2019-02-23T02:30:45.671Z,1.97
2019-02-23T02:34:13.238Z,1.82
2019-02-23T02:37:15.943Z,1.83
2019-02-23T02:40:18.698Z,1.65
2019-02-23T02:43:21.416Z,1.63
2019-02-23T02:46:24.025Z,1.60
2019-02-23T02:49:26.669Z,1.61
2019-02-23T02:52:29.332Z,1.62
2019-02-23T02:55:32.017Z,1.56
2019-02-23T02:58:34.710Z,1.53
2019-02-23T03:01:37.547Z,1.50
2019-02-23T03:04:40.156Z,1.39
2019-02-23T03:07:44.608Z,1.47
2019-02-23T03:10:47.210Z,1.43
2019-02-23T03:13:49.836Z,1.45
2019-02-23T03:16:52.447Z,1.38
2019-02-23T03:19:55.209Z,1.35
2019-02-23T03:22:57.791Z,1.13
2019-02-23T03:26:00.493Z,0.88
2019-02-23T03:29:03.177Z,1.01
2019-02-23T03:32:05.717Z,1.26
2019-02-23T03:35:08.450Z,1.32
2019-02-23T03:38:12.130Z,1.14
2019-02-23T03:41:14.765Z,1.05
2019-02-23T03:44:17.610Z,0.90
2019-02-23T03:47:20.398Z,0.86
2019-02-23T03:50:23.162Z,0.78
2019-02-23T03:53:26.222Z,0.43
2019-02-23T03:56:28.961Z,0.46
2019-02-23T03:59:31.681Z,0.42
2019-02-23T04:02:34.255Z,0.49
2019-02-23T04:05:37.223Z,0.50
2019-02-23T04:08:39.910Z,0.49
2019-02-23T04:11:42.578Z,0.47
2019-02-23T04:14:45.330Z,0.33
2019-02-23T04:17:47.907Z,0.29
2019-02-23T04:21:01.182Z,0.27
2019-02-23T04:23:57.892Z,0.24
2019-02-23T04:27:01.810Z,0.34
2019-02-23T04:30:04.699Z,0.42
2019-02-23T04:33:08.535Z,0.28
2019-02-23T04:36:11.166Z,0.16
2019-02-23T04:39:13.815Z,0.05
2019-02-23T04:42:16.350Z,0.06
2019-02-23T04:45:18.990Z,-0.20
2019-02-23T04:48:21.554Z,-0.27
2019-02-23T04:51:24.150Z,-0.41
2019-02-23T04:54:26.848Z,-0.20
2019-02-23T04:57:29.529Z,-0.54
2019-02-23T05:00:32.373Z,-0.54
2019-02-23T05:03:34.937Z,-0.70
2019-02-23T05:06:40.159Z,-0.77
2019-02-23T05:09:42.718Z,-0.59
2019-02-23T05:12:46.470Z,-0.64
2019-02-23T05:15:49.171Z,-0.58
2019-02-23T05:18:51.827Z,-0.70
2019-02-23T05:21:54.479Z,-0.80
2019-02-23T05:24:57.055Z,-0.99
2019-02-23T05:27:59.622Z,-0.72
2019-02-23T05:31:02.313Z,-0.57
2019-02-23T05:34:04.956Z,-0.67
2019-02-23T05:37:07.567Z,-0.79
2019-02-23T05:40:10.266Z,-0.64
2019-02-23T05:43:12.996Z,-0.70
2019-02-23T05:46:16.704Z,-0.93
2019-02-23T05:49:19.293Z,-0.70
2019-02-23T05:52:21.937Z,-0.66
2019-02-23T05:55:24.635Z,-0.60
2019-02-23T05:58:27.190Z,-0.71
2019-02-23T06:01:29.891Z,-0.67
2019-02-23T06:04:33.552Z,-0.60
2019-02-23T06:07:36.116Z,-0.43
2019-02-23T06:10:38.686Z,-0.53
2019-02-23T06:13:41.391Z,-0.21
2019-02-23T06:16:44.986Z,-0.27
2019-02-23T06:19:47.625Z,-0.32
2019-02-23T06:22:50.171Z,-0.12
2019-02-23T06:25:56.407Z,0.03
2019-02-23T06:28:59.132Z,0.02
2019-02-23T06:32:01.783Z,-0.14
2019-02-23T06:35:05.276Z,-0.05
2019-02-23T06:38:07.990Z,0.03
2019-02-23T06:41:10.728Z,0.05
2019-02-23T06:44:13.333Z,0.08
2019-02-23T06:47:15.949Z,-0.00
2019-02-23T06:50:18.532Z,0.19
2019-02-23T06:53:21.179Z,0.29
2019-02-23T06:56:23.882Z,0.39
2019-02-23T06:59:26.508Z,0.59
2019-02-23T07:02:29.299Z,0.62
2019-02-23T07:05:34.155Z,0.71
2019-02-23T07:08:36.902Z,0.76
2019-02-23T07:11:39.724Z,0.98
2019-02-23T07:14:44.127Z,0.99
2019-02-23T07:17:46.825Z,0.95
2019-02-23T07:20:49.403Z,1.16
2019-02-23T07:23:51.969Z,1.19
2019-02-23T07:26:54.565Z,1.09
2019-02-23T07:29:57.160Z,1.26
2019-02-23T07:32:59.886Z,1.28
2019-02-23T07:36:02.446Z,1.27
2019-02-23T07:39:05.429Z,1.42
2019-02-23T07:42:08.047Z,1.55
2019-02-23T07:45:10.795Z,1.51
2019-02-23T07:48:13.534Z,1.69
2019-02-23T07:51:17.792Z,1.78
2019-02-23T07:54:20.506Z,1.85
2019-02-23T07:57:23.115Z,1.81
2019-02-23T08:00:26.649Z,1.91
2019-02-23T08:03:29.225Z,2.08
2019-02-23T08:06:32.004Z,2.29
2019-02-23T08:09:34.676Z,2.15
2019-02-23T08:12:37.391Z,2.23
2019-02-23T08:15:39.960Z,2.30
2019-02-23T08:18:42.584Z,2.09
2019-02-23T08:21:45.231Z,2.22
2019-02-23T08:24:47.811Z,2.47
2019-02-23T08:27:50.529Z,2.70
2019-02-23T08:30:53.145Z,2.65
2019-02-23T08:33:55.875Z,2.52
2019-02-23T08:36:58.494Z,2.62
2019-02-23T08:40:01.375Z,2.52
2019-02-23T08:43:04.020Z,2.83
2019-02-23T08:46:06.566Z,2.85
2019-02-23T08:49:09.389Z,2.83
2019-02-23T08:52:13.554Z,2.98
2019-02-23T08:55:16.290Z,2.89
2019-02-23T08:58:18.974Z,3.15
2019-02-23T09:01:21.594Z,3.38
2019-02-23T09:04:27.414Z,3.36
2019-02-23T09:07:30.039Z,3.36
2019-02-23T09:10:34.855Z,3.21
2019-02-23T09:13:37.181Z,3.55
2019-02-23T09:16:39.951Z,3.47
2019-02-23T09:19:42.651Z,3.59
2019-02-23T09:22:45.460Z,3.91
2019-02-23T09:25:48.142Z,4.15
2019-02-23T09:28:50.841Z,3.97
2019-02-23T09:31:53.559Z,4.04
2019-02-23T09:34:56.146Z,4.21
2019-02-23T09:37:58.890Z,4.60
2019-02-23T09:41:01.495Z,4.32
2019-02-23T09:44:06.350Z,4.38
2019-02-23T09:47:09.035Z,4.23
2019-02-23T09:50:12.624Z,4.42
2019-02-23T09:53:15.291Z,4.59
2019-02-23T09:56:17.915Z,4.76
2019-02-23T09:59:20.568Z,4.95
2019-02-23T10:02:23.306Z,4.74
2019-02-23T10:05:26.014Z,4.86
2019-02-23T10:08:28.936Z,4.58
2019-02-23T10:11:31.555Z,4.89
2019-02-23T10:14:34.134Z,5.07
2019-02-23T10:17:36.881Z,5.05
2019-02-23T10:20:39.468Z,5.24
2019-02-23T10:23:42.171Z,5.39
2019-02-23T10:26:44.855Z,5.54
2019-02-23T10:29:47.450Z,5.51
2019-02-23T10:32:50.295Z,5.68
2019-02-23T10:35:52.988Z,6.12
2019-02-23T10:38:55.544Z,6.04
2019-02-23T10:41:58.211Z,5.98
2019-02-23T10:45:00.859Z,6.26
2019-02-23T10:48:03.461Z,5.80
2019-02-23T10:51:06.056Z,6.04
2019-02-23T10:54:08.754Z,6.10
2019-02-23T10:57:11.432Z,6.21
2019-02-23T11:00:18.672Z,6.29
2019-02-23T11:03:21.344Z,6.60
2019-02-23T11:06:23.979Z,6.29
2019-02-23T11:09:34.942Z,6.45
2019-02-23T11:12:37.494Z,6.53
2019-02-23T11:15:40.121Z,6.87
2019-02-23T11:18:42.756Z,7.03
2019-02-23T11:21:47.294Z,7.07
2019-02-23T11:24:49.976Z,7.05
2019-02-23T11:27:54.718Z,7.13
2019-02-23T11:30:57.176Z,7.08
2019-02-23T11:33:59.898Z,7.26
2019-02-23T11:37:02.466Z,7.34
2019-02-23T11:40:06.092Z,7.49
2019-02-23T11:43:08.670Z,7.20
2019-02-23T11:46:11.333Z,7.37
2019-02-23T11:49:14.032Z,7.55
2019-02-23T11:52:16.624Z,7.85
2019-02-23T11:55:20.279Z,7.61
2019-02-23T11:58:22.934Z,7.85
2019-02-23T12:01:26.694Z,7.84
2019-02-23T12:04:29.460Z,7.79
2019-02-23T12:07:33.540Z,7.58
2019-02-23T12:10:36.259Z,7.67
2019-02-23T12:13:38.804Z,7.62
2019-02-23T12:16:41.470Z,7.92
2019-02-23T12:19:44.190Z,7.87
2019-02-23T12:22:46.998Z,7.93
2019-02-23T12:25:49.708Z,7.99
2019-02-23T12:28:52.545Z,8.04
2019-02-23T12:31:55.231Z,7.94
2019-02-23T12:34:57.884Z,7.85
2019-02-23T12:38:00.506Z,8.07
2019-02-23T12:41:03.238Z,7.90
2019-02-23T12:44:06.023Z,7.94
2019-02-23T12:47:08.703Z,7.94
2019-02-23T12:50:12.604Z,7.83
2019-02-23T12:53:15.363Z,7.77
2019-02-23T12:56:17.912Z,7.61
2019-02-23T12:59:20.535Z,7.73
2019-02-23T13:02:23.180Z,7.52
2019-02-23T13:05:25.939Z,7.54
2019-02-23T13:08:55.544Z,7.58
2019-02-23T13:12:08.941Z,7.79
2019-02-23T13:15:21.268Z,7.91
2019-02-23T13:18:56.301Z,8.04
2019-02-23T13:22:39.586Z,8.26
2019-02-23T13:26:08.174Z,8.18
2019-02-23T13:29:39.614Z,8.33
2019-02-23T13:33:09.924Z,8.37
2019-02-23T13:36:50.571Z,8.11
2019-02-23T13:40:32.951Z,8.13
2019-02-23T13:43:59.678Z,8.24
2019-02-23T13:47:25.132Z,8.22
2019-02-23T13:51:01.289Z,8.09
2019-02-23T13:54:50.686Z,8.02
2019-02-23T13:58:32.248Z,8.03
2019-02-23T14:02:19.839Z,8.16
2019-02-23T14:05:55.709Z,7.93
2019-02-23T14:09:38.854Z,8.05
2019-02-23T14:13:17.270Z,7.97
2019-02-23T14:16:57.678Z,7.85
2019-02-23T14:20:47.366Z,7.77
2019-02-23T14:24:24.546Z,7.81
2019-02-23T14:27:55.938Z,7.92
2019-02-23T14:31:22.784Z,7.83
2019-02-23T14:34:58.250Z,7.92
2019-02-23T14:38:45.534Z,7.82
2019-02-23T14:42:12.183Z,7.86
2019-02-23T14:45:43.923Z,7.75
2019-02-23T14:49:34.078Z,7.81
2019-02-23T14:53:27.718Z,7.81
2019-02-23T14:57:13.965Z,7.89
2019-02-23T15:00:29.319Z,7.81
2019-02-23T15:04:09.710Z,7.62
2019-02-23T15:07:47.414Z,7.71
2019-02-23T15:11:18.093Z,7.53
2019-02-23T15:15:07.614Z,7.64
2019-02-23T15:18:53.464Z,7.50
2019-02-23T15:22:32.759Z,7.34
2019-02-23T15:26:30.708Z,7.30
2019-02-23T15:30:24.039Z,7.41
2019-02-23T15:34:17.287Z,7.28
2019-02-23T15:37:43.949Z,7.46
2019-02-23T15:41:13.443Z,7.49
2019-02-23T15:44:53.059Z,7.38
2019-02-23T15:48:28.254Z,7.37
2019-02-23T15:51:30.903Z,7.31
2019-02-23T15:54:33.722Z,7.28
2019-02-23T15:57:36.389Z,7.38
2019-02-23T16:00:39.033Z,7.16
2019-02-23T16:03:41.733Z,7.20
2019-02-23T16:06:44.487Z,7.31
2019-02-23T16:09:47.169Z,7.44
2019-02-23T16:12:52.509Z,7.44
2019-02-23T16:15:54.358Z,7.35
2019-02-23T16:18:57.017Z,7.37
2019-02-23T16:21:59.673Z,7.39
2019-02-23T16:25:02.302Z,7.31
2019-02-23T16:28:04.970Z,7.15
2019-02-23T16:31:07.624Z,7.12
2019-02-23T16:34:10.378Z,6.86
2019-02-23T16:37:13.049Z,6.68
2019-02-23T16:40:15.675Z,6.42
2019-02-23T16:43:18.319Z,6.35
2019-02-23T16:46:22.167Z,6.11
2019-02-23T16:49:24.828Z,5.97
2019-02-23T16:52:27.539Z,6.04
2019-02-23T16:55:30.127Z,6.12
2019-02-23T16:58:32.700Z,6.08
2019-02-23T17:01:35.324Z,6.24
2019-02-23T17:04:38.107Z,5.97
2019-02-23T17:07:40.758Z,5.90
2019-02-23T17:10:43.409Z,5.76
2019-02-23T17:13:46.087Z,5.49
2019-02-23T17:16:48.788Z,5.28
2019-02-23T17:19:51.439Z,5.07
2019-02-23T17:22:54.043Z,5.54
2019-02-23T17:26:04.222Z,5.59
2019-02-23T17:29:01.099Z,5.56
2019-02-23T17:32:03.712Z,5.36
2019-02-23T17:35:06.443Z,5.03
2019-02-23T17:38:16.163Z,5.00
2019-02-23T17:41:13.541Z,5.03
2019-02-23T17:44:16.156Z,5.06
2019-02-23T17:47:18.973Z,5.00
2019-02-23T17:50:25.133Z,4.94
2019-02-23T17:53:27.887Z,5.31
2019-02-23T17:56:30.542Z,5.31
2019-02-23T17:59:33.158Z,5.33
2019-02-23T18:02:35.727Z,5.15
2019-02-23T18:05:38.414Z,5.03
2019-02-23T18:08:40.961Z,4.94
2019-02-23T18:11:48.689Z,4.90
2019-02-23T18:14:50.523Z,5.51
2019-02-23T18:17:55.118Z,5.74
2019-02-23T18:20:57.715Z,6.11
2019-02-23T18:24:00.325Z,5.83
2019-02-23T18:27:02.862Z,5.57
2019-02-23T18:30:11.320Z,5.72
2019-02-23T18:33:11.734Z,5.30
2019-02-23T18:36:14.562Z,5.70
2019-02-23T18:39:17.328Z,5.87
2019-02-23T18:42:19.978Z,5.62
2019-02-23T18:45:22.713Z,5.71
2019-02-23T18:48:25.298Z,5.61
2019-02-23T18:51:28.173Z,5.41
2019-02-23T18:54:30.893Z,5.27
2019-02-23T18:57:33.679Z,5.03
2019-02-23T19:00:36.265Z,5.15
2019-02-23T19:03:38.948Z,4.89
2019-02-23T19:06:41.732Z,4.68
2019-02-23T19:09:44.550Z,4.95
2019-02-23T19:12:47.212Z,4.66
2019-02-23T19:15:49.871Z,4.67
2019-02-23T19:18:52.629Z,4.83
2019-02-23T19:21:55.187Z,4.94
2019-02-23T19:24:57.874Z,5.39
2019-02-23T19:28:00.543Z,5.38
2019-02-23T19:31:03.289Z,5.31
2019-02-23T19:34:05.935Z,5.31
2019-02-23T19:37:10.976Z,5.38
2019-02-23T19:40:14.021Z,5.16
2019-02-23T19:43:16.707Z,5.23
2019-02-23T19:46:19.768Z,4.91
2019-02-23T19:49:22.419Z,5.02
2019-02-23T19:52:25.196Z,4.90
2019-02-23T19:55:28.967Z,4.87
2019-02-23T19:58:31.624Z,4.96
2019-02-23T20:01:34.279Z,4.86
2019-02-23T20:04:36.907Z,4.46
2019-02-23T20:07:39.790Z,4.43
2019-02-23T20:10:43.017Z,4.32
2019-02-23T20:13:46.972Z,4.15
2019-02-23T20:16:52.812Z,4.03
2019-02-23T20:19:55.503Z,4.31
2019-02-23T20:23:00.139Z,4.29
2019-02-23T20:26:04.701Z,3.97
2019-02-23T20:29:07.457Z,4.24
2019-02-23T20:32:10.298Z,3.97
2019-02-23T20:35:12.873Z,4.88
2019-02-23T20:38:15.563Z,4.69
2019-02-23T20:41:18.237Z,5.01
2019-02-23T20:44:21.018Z,4.53
2019-02-23T20:47:23.687Z,4.49
2019-02-23T20:50:26.393Z,4.39
2019-02-23T20:53:29.211Z,4.47
2019-02-23T20:56:31.892Z,4.10
2019-02-23T20:59:34.676Z,4.12
2019-02-23T21:02:41.517Z,4.05
2019-02-23T21:05:44.234Z,3.91
2019-02-23T21:08:47.046Z,3.99
2019-02-23T21:11:49.807Z,4.13
2019-02-23T21:14:53.623Z,3.88
2019-02-23T21:17:56.288Z,3.77
2019-02-23T21:20:58.995Z,3.77
2019-02-23T21:24:01.662Z,4.07
2019-02-23T21:27:12.679Z,3.72
2019-02-23T21:30:09.140Z,4.13
2019-02-23T21:33:11.888Z,4.28
2019-02-23T21:36:14.558Z,4.52
2019-02-23T21:39:17.217Z,4.59
2019-02-23T21:42:19.943Z,4.67
2019-02-23T21:45:22.662Z,4.19
2019-02-23T21:48:32.907Z,4.27
2019-02-23T21:51:34.854Z,4.14
2019-02-23T21:54:38.539Z,3.84
2019-02-23T21:57:42.225Z,3.98
2019-02-23T22:00:44.944Z,3.93
2019-02-23T22:03:47.719Z,3.80
2019-02-23T22:06:51.540Z,3.79
2019-02-23T22:09:56.047Z,3.69
2019-02-23T22:13:01.971Z,3.53
2019-02-23T22:16:04.646Z,3.80
2019-02-23T22:19:08.460Z,3.99
2019-02-23T22:22:11.192Z,3.93
2019-02-23T22:25:13.962Z,4.23
2019-02-23T22:28:16.507Z,4.34
2019-02-23T22:31:19.157Z,4.44
2019-02-23T22:34:21.776Z,4.22
2019-02-23T22:37:24.458Z,4.46
2019-02-23T22:40:27.082Z,4.37
2019-02-23T22:43:29.713Z,4.48
2019-02-23T22:46:32.423Z,4.68
2019-02-23T22:49:34.963Z,4.54
2019-02-23T22:52:38.873Z,4.41
2019-02-23T22:55:41.444Z,4.33
2019-02-23T22:58:44.179Z,4.43
2019-02-23T23:01:46.962Z,4.67
2019-02-23T23:04:50.856Z,4.44
2019-02-23T23:07:55.322Z,4.26
2019-02-23T23:10:57.942Z,4.64
2019-02-23T23:14:00.543Z,4.32
2019-02-23T23:17:03.233Z,4.10
2019-02-23T23:20:06.272Z,4.35
2019-02-23T23:23:08.997Z,4.24
2019-02-23T23:26:11.813Z,4.57
2019-02-23T23:29:14.583Z,4.32
2019-02-23T23:32:17.271Z,4.46
2019-02-23T23:35:19.969Z,4.34
2019-02-23T23:38:22.513Z,4.30
2019-02-23T23:41:25.292Z,4.39
2019-02-23T23:44:27.958Z,4.34
2019-02-23T23:47:30.632Z,4.54
2019-02-23T23:50:33.222Z,4.38
2019-02-23T23:53:35.790Z,4.65
2019-02-23T23:56:38.499Z,4.38
2019-02-23T23:59:41.362Z,4.44
